createdAt,value
2018-09-18T00:00:27.961Z,1015.34
2018-09-18T00:01:38.101Z,1015.34
2018-09-18T00:02:48.212Z,1015.31
2018-09-18T00:03:58.318Z,1015.32
2018-09-18T00:05:07.891Z,1015.34
2018-09-18T00:06:18.028Z,1015.33
2018-09-18T00:07:28.132Z,1015.3
2018-09-18T00:08:37.972Z,1015.3
2018-09-18T00:09:47.807Z,1015.33
2018-09-18T00:10:57.382Z,1015.3
2018-09-18T00:12:07.234Z,1015.29
2018-09-18T00:13:16.811Z,1015.32
2018-09-18T00:14:26.380Z,1015.34
2018-09-18T00:15:36.219Z,1015.29
2018-09-18T00:16:46.319Z,1015.31
2018-09-18T00:17:55.900Z,1015.31
2018-09-18T00:19:05.740Z,1015.28
2018-09-18T00:20:15.307Z,1015.24
2018-09-18T00:21:24.875Z,1015.24
2018-09-18T00:22:34.710Z,1015.28
2018-09-18T00:23:44.551Z,1015.27
2018-09-18T00:24:53.853Z,1015.23
2018-09-18T00:26:03.721Z,1015.22
2018-09-18T00:27:13.765Z,1015.2
2018-09-18T00:28:23.333Z,1015.19
2018-09-18T00:29:32.905Z,1015.2
2018-09-18T00:30:43.017Z,1015.18
2018-09-18T00:31:53.124Z,1015.15
2018-09-18T00:33:02.691Z,1015.13
2018-09-18T00:34:12.587Z,1015.17
2018-09-18T00:35:22.420Z,1015.14
2018-09-18T00:36:32.270Z,1015.15
2018-09-18T00:37:42.108Z,1015.14
2018-09-18T00:38:51.949Z,1015.1
2018-09-18T00:40:02.064Z,1015.14
2018-09-18T00:41:11.374Z,1015.1
2018-09-18T00:42:21.220Z,1015.07
2018-09-18T00:43:31.068Z,1015.11
2018-09-18T00:44:40.644Z,1015.06
2018-09-18T00:45:50.535Z,1015.03
2018-09-18T00:47:00.642Z,1015.03
2018-09-18T00:48:10.807Z,1014.99
2018-09-18T00:49:20.384Z,1014.98
2018-09-18T00:50:30.501Z,1014.97
2018-09-18T00:51:40.069Z,1014.94
2018-09-18T00:52:50.217Z,1014.96
2018-09-18T00:54:00.053Z,1014.95
2018-09-18T00:55:09.892Z,1014.93
2018-09-18T00:56:19.733Z,1014.96
2018-09-18T00:57:29.572Z,1014.94
2018-09-18T00:58:39.690Z,1014.9
2018-09-18T00:59:48.995Z,1014.87
2018-09-18T01:00:58.833Z,1014.94
2018-09-18T01:02:08.947Z,1014.88
2018-09-18T01:03:18.797Z,1014.85
2018-09-18T01:04:28.101Z,1014.86
2018-09-18T01:05:37.943Z,1014.85
2018-09-18T01:06:47.257Z,1014.83
2018-09-18T01:07:57.093Z,1014.84
2018-09-18T01:09:06.939Z,1014.83
2018-09-18T01:10:16.785Z,1014.82
2018-09-18T01:11:25.815Z,1014.78
2018-09-18T01:12:35.383Z,1014.77
2018-09-18T01:13:45.224Z,1014.76
2018-09-18T01:14:55.093Z,1014.78
2018-09-18T01:16:04.657Z,1014.79
2018-09-18T01:17:14.760Z,1014.78
2018-09-18T01:18:24.328Z,1014.77
2018-09-18T01:19:34.166Z,1014.74
2018-09-18T01:20:44.002Z,1014.71
2018-09-18T01:21:54.103Z,1014.71
2018-09-18T01:23:04.238Z,1014.7
2018-09-18T01:24:14.088Z,1014.7
2018-09-18T01:25:23.662Z,1014.7
2018-09-18T01:26:32.793Z,1014.7
2018-09-18T01:27:42.363Z,1014.71
2018-09-18T01:28:52.468Z,1014.72
2018-09-18T01:30:02.316Z,1014.7
2018-09-18T01:31:12.160Z,1014.69
2018-09-18T01:32:21.732Z,1014.67
2018-09-18T01:33:31.303Z,1014.65
2018-09-18T01:34:41.376Z,1014.66
2018-09-18T01:35:50.947Z,1014.64
2018-09-18T01:37:00.524Z,1014.64
2018-09-18T01:38:10.687Z,1014.65
2018-09-18T01:39:19.988Z,1014.66
2018-09-18T01:40:29.826Z,1014.63
2018-09-18T01:41:39.935Z,1014.64
2018-09-18T01:42:49.497Z,1014.65
2018-09-18T01:43:59.337Z,1014.61
2018-09-18T01:45:08.907Z,1014.63
2018-09-18T01:46:18.209Z,1014.64
2018-09-18T01:47:27.807Z,1014.61
2018-09-18T01:48:37.650Z,1014.64
2018-09-18T01:49:47.535Z,1014.6
2018-09-18T01:50:57.376Z,1014.59
2018-09-18T01:52:07.492Z,1014.64
2018-09-18T01:53:17.061Z,1014.61
2018-09-18T01:54:27.166Z,1014.6
2018-09-18T01:55:37.050Z,1014.57
2018-09-18T01:56:46.890Z,1014.6
2018-09-18T01:57:57.007Z,1014.61
2018-09-18T01:59:07.119Z,1014.6
2018-09-18T02:00:16.994Z,1014.59
2018-09-18T02:01:26.571Z,1014.65
2018-09-18T02:02:36.682Z,1014.62
2018-09-18T02:03:46.261Z,1014.56
2018-09-18T02:04:56.104Z,1014.6
2018-09-18T02:06:05.944Z,1014.55
2018-09-18T02:07:15.524Z,1014.6
2018-09-18T02:08:25.088Z,1014.59
2018-09-18T02:09:34.929Z,1014.61
2018-09-18T02:10:45.048Z,1014.57
2018-09-18T02:11:54.083Z,1014.54
2018-09-18T02:13:03.923Z,1014.55
2018-09-18T02:14:14.042Z,1014.55
2018-09-18T02:15:24.148Z,1014.52
2018-09-18T02:16:33.447Z,1014.55
2018-09-18T02:17:43.289Z,1014.59
2018-09-18T02:18:52.855Z,1014.58
2018-09-18T02:20:02.693Z,1014.59
2018-09-18T02:21:12.532Z,1014.54
2018-09-18T02:22:21.835Z,1014.53
2018-09-18T02:23:31.408Z,1014.55
2018-09-18T02:24:41.492Z,1014.54
2018-09-18T02:25:51.335Z,1014.57
2018-09-18T02:27:01.449Z,1014.51
2018-09-18T02:28:11.297Z,1014.56
2018-09-18T02:29:21.137Z,1014.56
2018-09-18T02:30:30.701Z,1014.57
2018-09-18T02:31:40.550Z,1014.55
2018-09-18T02:32:50.131Z,1014.52
2018-09-18T02:34:00.257Z,1014.49
2018-09-18T02:35:10.617Z,1014.51
2018-09-18T02:36:20.758Z,1014.52
2018-09-18T02:37:30.873Z,1014.47
2018-09-18T02:38:40.451Z,1014.49
2018-09-18T02:39:50.291Z,1014.47
2018-09-18T02:41:00.423Z,1014.48
2018-09-18T02:42:09.989Z,1014.46
2018-09-18T02:43:19.831Z,1014.45
2018-09-18T02:44:29.139Z,1014.46
2018-09-18T02:45:38.973Z,1014.41
2018-09-18T02:46:49.080Z,1014.41
2018-09-18T02:47:59.300Z,1014.4
2018-09-18T02:49:09.146Z,1014.41
2018-09-18T02:50:18.987Z,1014.38
2018-09-18T02:51:29.096Z,1014.4
2018-09-18T02:52:39.213Z,1014.33
2018-09-18T02:53:48.784Z,1014.35
2018-09-18T02:54:58.357Z,1014.33
2018-09-18T02:56:07.941Z,1014.36
2018-09-18T02:57:18.049Z,1014.34
2018-09-18T02:58:27.902Z,1014.31
2018-09-18T02:59:37.769Z,1014.28
2018-09-18T03:00:47.613Z,1014.28
2018-09-18T03:01:57.463Z,1014.29
2018-09-18T03:03:07.313Z,1014.27
2018-09-18T03:04:17.425Z,1014.28
2018-09-18T03:05:27.079Z,1014.26
2018-09-18T03:06:36.699Z,1014.23
2018-09-18T03:07:46.564Z,1014.22
2018-09-18T03:08:56.411Z,1014.22
2018-09-18T03:10:06.525Z,1014.21
2018-09-18T03:11:16.161Z,1014.19
2018-09-18T03:12:26.683Z,1014.22
2018-09-18T03:13:36.565Z,1014.17
2018-09-18T03:14:46.165Z,1014.17
2018-09-18T03:15:55.466Z,1014.13
2018-09-18T03:17:05.598Z,1014.17
2018-09-18T03:18:15.471Z,1014.17
2018-09-18T03:19:25.580Z,1014.18
2018-09-18T03:20:35.426Z,1014.13
2018-09-18T03:21:45.005Z,1014.12
2018-09-18T03:22:54.311Z,1014.1
2018-09-18T03:24:04.160Z,1014.12
2018-09-18T03:25:14.351Z,1014.11
2018-09-18T03:26:24.256Z,1014.07
2018-09-18T03:27:33.834Z,1014.06
2018-09-18T03:28:43.734Z,1014.05
2018-09-18T03:29:53.580Z,1014.02
2018-09-18T03:31:03.160Z,1014.01
2018-09-18T03:32:12.783Z,1014
2018-09-18T03:33:22.725Z,1014.01
2018-09-18T03:34:32.616Z,1014.01
2018-09-18T03:35:42.750Z,1013.97
2018-09-18T03:36:52.585Z,1013.97
2018-09-18T03:38:02.455Z,1014
2018-09-18T03:39:12.330Z,1013.97
2018-09-18T03:40:21.918Z,1013.95
2018-09-18T03:41:31.764Z,1013.93
2018-09-18T03:42:41.607Z,1013.9
2018-09-18T03:43:51.719Z,1013.91
2018-09-18T03:45:01.298Z,1013.89
2018-09-18T03:46:10.909Z,1013.91
2018-09-18T03:47:20.776Z,1013.84
2018-09-18T03:48:30.075Z,1013.87
2018-09-18T03:49:39.950Z,1013.87
2018-09-18T03:50:48.986Z,1013.85
2018-09-18T03:51:58.880Z,1013.86
2018-09-18T03:53:08.725Z,1013.86
2018-09-18T03:54:18.572Z,1013.83
2018-09-18T03:55:28.420Z,1013.83
2018-09-18T03:56:38.043Z,1013.83
2018-09-18T03:57:48.168Z,1013.83
2018-09-18T03:58:58.283Z,1013.82
2018-09-18T04:00:08.168Z,1013.85
2018-09-18T04:01:18.007Z,1013.83
2018-09-18T04:02:27.861Z,1013.85
2018-09-18T04:03:37.701Z,1013.78
2018-09-18T04:04:47.577Z,1013.82
2018-09-18T04:05:57.435Z,1013.82
2018-09-18T04:07:07.022Z,1013.81
2018-09-18T04:08:17.136Z,1013.78
2018-09-18T04:09:27.247Z,1013.75
2018-09-18T04:10:37.089Z,1013.74
2018-09-18T04:11:46.726Z,1013.69
2018-09-18T04:12:56.604Z,1013.75
2018-09-18T04:14:06.732Z,1013.72
2018-09-18T04:15:16.851Z,1013.69
2018-09-18T04:16:26.699Z,1013.68
2018-09-18T04:17:36.806Z,1013.67
2018-09-18T04:18:46.683Z,1013.66
2018-09-18T04:19:56.823Z,1013.66
2018-09-18T04:21:06.712Z,1013.66
2018-09-18T04:22:16.289Z,1013.62
2018-09-18T04:23:25.865Z,1013.63
2018-09-18T04:24:35.715Z,1013.62
2018-09-18T04:25:45.820Z,1013.6
2018-09-18T04:26:55.706Z,1013.56
2018-09-18T04:28:05.546Z,1013.59
2018-09-18T04:29:15.405Z,1013.57
2018-09-18T04:30:25.259Z,1013.6
2018-09-18T04:31:35.114Z,1013.59
2018-09-18T04:32:44.982Z,1013.58
2018-09-18T04:33:54.820Z,1013.57
2018-09-18T04:35:04.957Z,1013.57
2018-09-18T04:36:15.070Z,1013.61
2018-09-18T04:37:24.387Z,1013.58
2018-09-18T04:38:34.279Z,1013.56
2018-09-18T04:39:44.395Z,1013.56
2018-09-18T04:40:54.242Z,1013.58
2018-09-18T04:42:04.345Z,1013.52
2018-09-18T04:43:14.191Z,1013.5
2018-09-18T04:44:23.494Z,1013.51
2018-09-18T04:45:33.154Z,1013.48
2018-09-18T04:46:42.997Z,1013.5
2018-09-18T04:47:52.574Z,1013.44
2018-09-18T04:49:02.145Z,1013.46
2018-09-18T04:50:11.719Z,1013.45
2018-09-18T04:51:21.288Z,1013.48
2018-09-18T04:52:30.892Z,1013.48
2018-09-18T04:53:40.465Z,1013.5
2018-09-18T04:54:50.347Z,1013.44
2018-09-18T04:56:00.865Z,1013.43
2018-09-18T04:57:10.979Z,1013.47
2018-09-18T04:58:20.568Z,1013.47
2018-09-18T04:59:30.412Z,1013.45
2018-09-18T05:00:39.716Z,1013.42
2018-09-18T05:01:49.826Z,1013.43
2018-09-18T05:02:59.891Z,1013.41
2018-09-18T05:04:09.193Z,1013.4
2018-09-18T05:05:18.787Z,1013.4
2018-09-18T05:06:28.357Z,1013.42
2018-09-18T05:07:37.664Z,1013.4
2018-09-18T05:08:47.821Z,1013.4
2018-09-18T05:09:57.944Z,1013.38
2018-09-18T05:11:08.061Z,1013.41
2018-09-18T05:12:17.899Z,1013.4
2018-09-18T05:13:27.521Z,1013.41
2018-09-18T05:14:36.828Z,1013.42
2018-09-18T05:15:46.666Z,1013.42
2018-09-18T05:16:56.236Z,1013.45
2018-09-18T05:18:06.084Z,1013.43
2018-09-18T05:19:16.219Z,1013.44
2018-09-18T05:20:26.070Z,1013.45
2018-09-18T05:21:35.377Z,1013.46
2018-09-18T05:22:44.679Z,1013.49
2018-09-18T05:23:54.517Z,1013.43
2018-09-18T05:25:04.084Z,1013.42
2018-09-18T05:26:13.656Z,1013.43
2018-09-18T05:27:23.763Z,1013.41
2018-09-18T05:28:33.885Z,1013.43
2018-09-18T05:29:43.728Z,1013.47
2018-09-18T05:30:53.872Z,1013.42
2018-09-18T05:32:03.713Z,1013.41
2018-09-18T05:33:13.575Z,1013.41
2018-09-18T05:34:23.582Z,1013.41
2018-09-18T05:35:32.906Z,1013.44
2018-09-18T05:36:42.746Z,1013.42
2018-09-18T05:37:52.591Z,1013.42
2018-09-18T05:39:02.160Z,1013.41
2018-09-18T05:40:12.004Z,1013.39
2018-09-18T05:41:22.113Z,1013.4
2018-09-18T05:42:32.223Z,1013.39
2018-09-18T05:43:42.340Z,1013.37
2018-09-18T05:44:52.449Z,1013.43
2018-09-18T05:46:02.019Z,1013.42
2018-09-18T05:47:11.850Z,1013.4
2018-09-18T05:48:21.431Z,1013.4
2018-09-18T05:49:31.542Z,1013.41
2018-09-18T05:50:41.119Z,1013.37
2018-09-18T05:51:51.009Z,1013.37
2018-09-18T05:53:00.850Z,1013.44
2018-09-18T05:54:10.711Z,1013.4
2018-09-18T05:55:20.213Z,1013.38
2018-09-18T05:56:30.057Z,1013.36
2018-09-18T05:57:39.896Z,1013.41
2018-09-18T05:58:49.507Z,1013.39
2018-09-18T05:59:59.345Z,1013.38
2018-09-18T06:01:09.190Z,1013.41
2018-09-18T06:02:18.820Z,1013.4
2018-09-18T06:03:28.117Z,1013.36
2018-09-18T06:04:37.957Z,1013.31
2018-09-18T06:05:47.266Z,1013.31
2018-09-18T06:06:57.378Z,1013.31
2018-09-18T06:08:06.947Z,1013.31
2018-09-18T06:09:17.059Z,1013.22
2018-09-18T06:10:26.932Z,1013.26
2018-09-18T06:11:37.074Z,1013.24
2018-09-18T06:12:47.213Z,1013.24
2018-09-18T06:13:57.058Z,1013.25
2018-09-18T06:15:06.663Z,1013.25
2018-09-18T06:16:17.003Z,1013.22
2018-09-18T06:17:26.576Z,1013.19
2018-09-18T06:18:36.452Z,1013.22
2018-09-18T06:19:47.087Z,1013.19
2018-09-18T06:20:56.961Z,1013.2
2018-09-18T06:22:06.892Z,1013.18
2018-09-18T06:23:16.734Z,1013.18
2018-09-18T06:24:26.041Z,1013.16
2018-09-18T06:25:35.880Z,1013.16
2018-09-18T06:26:45.458Z,1013.14
2018-09-18T06:27:55.303Z,1013.22
2018-09-18T06:29:04.336Z,1013.17
2018-09-18T06:30:14.272Z,1013.16
2018-09-18T06:31:24.345Z,1013.15
2018-09-18T06:32:34.490Z,1013.15
2018-09-18T06:33:44.084Z,1013.18
2018-09-18T06:34:54.191Z,1013.14
2018-09-18T06:36:04.306Z,1013.16
2018-09-18T06:37:14.191Z,1013.14
2018-09-18T06:38:24.032Z,1013.15
2018-09-18T06:39:34.164Z,1013.14
2018-09-18T06:40:44.005Z,1013.13
2018-09-18T06:41:53.607Z,1013.17
2018-09-18T06:43:03.234Z,1013.18
2018-09-18T06:44:13.076Z,1013.18
2018-09-18T06:45:22.920Z,1013.13
2018-09-18T06:46:32.792Z,1013.12
2018-09-18T06:47:42.912Z,1013.14
2018-09-18T06:48:53.167Z,1013.12
2018-09-18T06:50:03.270Z,1013.11
2018-09-18T06:51:12.854Z,1013.14
2018-09-18T06:52:22.700Z,1013.12
2018-09-18T06:53:32.265Z,1013.13
2018-09-18T06:54:42.159Z,1013.09
2018-09-18T06:55:52.267Z,1013.09
2018-09-18T06:57:02.104Z,1013.08
2018-09-18T06:58:11.683Z,1013.07
2018-09-18T06:59:21.789Z,1013.07
2018-09-18T07:00:31.686Z,1013.05
2018-09-18T07:01:41.564Z,1013.09
2018-09-18T07:02:51.402Z,1013.05
2018-09-18T07:04:01.244Z,1013.13
2018-09-18T07:05:11.102Z,1013.08
2018-09-18T07:06:20.955Z,1013.1
2018-09-18T07:07:30.531Z,1013.09
2018-09-18T07:08:39.836Z,1013.08
2018-09-18T07:09:49.676Z,1013.09
2018-09-18T07:10:58.717Z,1013.11
2018-09-18T07:12:07.795Z,1013.09
2018-09-18T07:13:17.639Z,1013.08
2018-09-18T07:14:27.209Z,1013.08
2018-09-18T07:15:36.789Z,1012.97
2018-09-18T07:16:46.642Z,1012.98
2018-09-18T07:17:56.550Z,1012.96
2018-09-18T07:19:07.081Z,1012.98
2018-09-18T07:20:16.647Z,1013.01
2018-09-18T07:21:26.761Z,1013.01
2018-09-18T07:22:36.876Z,1013.03
2018-09-18T07:23:47.005Z,1013.01
2018-09-18T07:24:57.210Z,1013
2018-09-18T07:26:07.598Z,1012.98
2018-09-18T07:27:17.167Z,1013.02
2018-09-18T07:28:27.284Z,1012.96
2018-09-18T07:29:37.403Z,1012.98
2018-09-18T07:30:47.253Z,1013
2018-09-18T07:31:57.370Z,1012.99
2018-09-18T07:33:06.951Z,1012.94
2018-09-18T07:34:17.065Z,1012.98
2018-09-18T07:35:26.921Z,1013
2018-09-18T07:36:36.493Z,1012.99
2018-09-18T07:37:46.339Z,1012.96
2018-09-18T07:38:55.913Z,1012.94
2018-09-18T07:40:05.788Z,1012.93
2018-09-18T07:41:15.657Z,1012.95
2018-09-18T07:42:25.778Z,1012.97
2018-09-18T07:43:35.906Z,1012.92
2018-09-18T07:44:45.785Z,1012.95
2018-09-18T07:45:55.353Z,1012.93
2018-09-18T07:47:05.478Z,1012.92
2018-09-18T07:48:15.327Z,1012.92
2018-09-18T07:49:25.172Z,1012.89
2018-09-18T07:50:35.504Z,1012.88
2018-09-18T07:51:45.534Z,1012.91
2018-09-18T07:52:55.392Z,1012.91
2018-09-18T07:54:05.236Z,1012.92
2018-09-18T07:55:14.820Z,1012.9
2018-09-18T07:56:24.940Z,1012.91
2018-09-18T07:57:34.762Z,1012.89
2018-09-18T07:58:44.117Z,1012.88
2018-09-18T07:59:54.229Z,1012.91
2018-09-18T08:01:04.093Z,1012.91
2018-09-18T08:02:13.393Z,1012.85
2018-09-18T08:03:23.243Z,1012.84
2018-09-18T08:04:33.137Z,1012.81
2018-09-18T08:05:43.021Z,1012.86
2018-09-18T08:06:52.867Z,1012.81
2018-09-18T08:08:02.727Z,1012.83
2018-09-18T08:09:12.570Z,1012.82
2018-09-18T08:10:22.414Z,1012.77
2018-09-18T08:11:31.725Z,1012.77
2018-09-18T08:12:41.591Z,1012.79
2018-09-18T08:13:51.162Z,1012.78
2018-09-18T08:15:01.280Z,1012.79
2018-09-18T08:16:10.853Z,1012.74
2018-09-18T08:17:20.976Z,1012.77
2018-09-18T08:18:31.066Z,1012.78
2018-09-18T08:19:41.188Z,1012.77
2018-09-18T08:20:52.276Z,1012.77
2018-09-18T08:22:02.210Z,1012.74
2018-09-18T08:23:12.677Z,1012.69
2018-09-18T08:24:22.524Z,1012.74
2018-09-18T08:25:32.396Z,1012.73
2018-09-18T08:26:41.436Z,1012.69
2018-09-18T08:27:51.282Z,1012.71
2018-09-18T08:29:01.127Z,1012.69
2018-09-18T08:30:10.999Z,1012.72
2018-09-18T08:31:20.574Z,1012.67
2018-09-18T08:32:30.203Z,1012.69
2018-09-18T08:33:40.902Z,1012.68
2018-09-18T08:34:50.776Z,1012.66
2018-09-18T08:36:00.626Z,1012.68
2018-09-18T08:37:10.765Z,1012.66
2018-09-18T08:38:20.609Z,1012.69
2018-09-18T08:39:30.506Z,1012.73
2018-09-18T08:40:40.127Z,1012.74
2018-09-18T08:41:49.785Z,1012.69
2018-09-18T08:42:59.935Z,1012.7
2018-09-18T08:44:10.166Z,1012.67
2018-09-18T08:45:20.106Z,1012.68
2018-09-18T08:46:29.987Z,1012.61
2018-09-18T08:47:40.145Z,1012.63
2018-09-18T08:48:49.999Z,1012.59
2018-09-18T08:50:00.289Z,1012.59
2018-09-18T08:51:10.210Z,1012.64
2018-09-18T08:52:19.794Z,1012.58
2018-09-18T08:53:29.464Z,1012.56
2018-09-18T08:54:39.282Z,1012.55
2018-09-18T08:55:49.448Z,1012.55
2018-09-18T08:56:59.627Z,1012.54
2018-09-18T08:58:09.806Z,1012.5
2018-09-18T08:59:19.705Z,1012.48
2018-09-18T09:00:29.034Z,1012.51
2018-09-18T09:01:38.605Z,1012.54
2018-09-18T09:02:48.668Z,1012.54
2018-09-18T09:03:58.729Z,1012.55
2018-09-18T09:05:09.102Z,1012.47
2018-09-18T09:06:18.818Z,1012.48
2018-09-18T09:07:29.148Z,1012.5
2018-09-18T09:08:39.544Z,1012.48
2018-09-18T09:09:50.140Z,1012.47
2018-09-18T09:10:59.540Z,1012.44
2018-09-18T09:12:09.704Z,1012.44
2018-09-18T09:13:19.608Z,1012.48
2018-09-18T09:14:29.580Z,1012.43
2018-09-18T09:15:39.653Z,1012.33
2018-09-18T09:16:49.700Z,1012.35
2018-09-18T09:17:59.160Z,1012.31
2018-09-18T09:19:10.161Z,1012.34
2018-09-18T09:20:20.081Z,1012.35
2018-09-18T09:21:29.941Z,1012.31
2018-09-18T09:22:39.964Z,1012.32
2018-09-18T09:23:49.880Z,1012.24
2018-09-18T09:24:59.221Z,1012.27
2018-09-18T09:26:08.836Z,1012.24
2018-09-18T09:27:18.746Z,1012.2
2018-09-18T09:28:28.915Z,1012.2
2018-09-18T09:29:39.116Z,1012.18
2018-09-18T09:30:49.900Z,1012.19
2018-09-18T09:31:59.197Z,1012.17
2018-09-18T09:33:09.404Z,1012.12
2018-09-18T09:34:19.300Z,1012.07
2018-09-18T09:35:29.292Z,1012.12
2018-09-18T09:36:39.461Z,1012.11
2018-09-18T09:37:49.155Z,1012.14
2018-09-18T09:38:59.037Z,1012.1
2018-09-18T09:40:08.944Z,1012.11
2018-09-18T09:41:19.055Z,1012.09
2018-09-18T09:42:28.908Z,1012.1
2018-09-18T09:43:38.741Z,1012.05
2018-09-18T09:44:48.549Z,1012.02
2018-09-18T09:45:59.004Z,1011.99
2018-09-18T09:47:08.588Z,1012.01
2018-09-18T09:48:18.709Z,1012.04
2018-09-18T09:49:28.050Z,1012.02
2018-09-18T09:50:37.931Z,1012.04
2018-09-18T09:51:47.778Z,1011.99
2018-09-18T09:52:57.356Z,1011.96
2018-09-18T09:54:07.237Z,1012.04
2018-09-18T09:55:17.089Z,1011.97
2018-09-18T09:56:26.400Z,1011.92
2018-09-18T09:57:36.248Z,1011.95
2018-09-18T09:58:46.098Z,1011.9
2018-09-18T09:59:55.946Z,1011.93
2018-09-18T10:01:06.060Z,1011.95
2018-09-18T10:02:16.263Z,1011.84
2018-09-18T10:03:26.152Z,1011.9
2018-09-18T10:04:35.740Z,1011.91
2018-09-18T10:05:45.590Z,1011.9
2018-09-18T10:06:55.707Z,1011.92
2018-09-18T10:08:05.824Z,1011.91
2018-09-18T10:09:15.677Z,1011.9
2018-09-18T10:10:25.579Z,1011.87
2018-09-18T10:11:36.155Z,1011.89
2018-09-18T10:12:45.735Z,1011.85
2018-09-18T10:13:55.613Z,1011.89
2018-09-18T10:15:05.196Z,1011.83
2018-09-18T10:16:15.482Z,1011.81
2018-09-18T10:17:25.066Z,1011.79
2018-09-18T10:18:34.963Z,1011.75
2018-09-18T10:19:44.816Z,1011.78
2018-09-18T10:20:54.681Z,1011.78
2018-09-18T10:22:03.986Z,1011.74
2018-09-18T10:23:13.294Z,1011.78
2018-09-18T10:24:23.238Z,1011.78
2018-09-18T10:25:33.446Z,1011.79
2018-09-18T10:26:43.653Z,1011.78
2018-09-18T10:27:53.916Z,1011.74
2018-09-18T10:29:03.890Z,1011.75
2018-09-18T10:30:14.177Z,1011.75
2018-09-18T10:31:24.107Z,1011.71
2018-09-18T10:32:34.020Z,1011.7
2018-09-18T10:33:43.529Z,1011.71
2018-09-18T10:34:53.685Z,1011.67
2018-09-18T10:36:03.352Z,1011.64
2018-09-18T10:37:12.974Z,1011.67
2018-09-18T10:38:23.128Z,1011.6
2018-09-18T10:39:33.368Z,1011.59
2018-09-18T10:40:43.305Z,1011.56
2018-09-18T10:41:53.747Z,1011.68
2018-09-18T10:43:04.704Z,1011.59
2018-09-18T10:44:14.306Z,1011.61
2018-09-18T10:45:24.513Z,1011.58
2018-09-18T10:46:34.729Z,1011.54
2018-09-18T10:47:44.401Z,1011.62
2018-09-18T10:48:54.618Z,1011.58
2018-09-18T10:50:04.217Z,1011.58
2018-09-18T10:51:14.066Z,1011.57
2018-09-18T10:52:23.959Z,1011.55
2018-09-18T10:53:33.950Z,1011.55
2018-09-18T10:54:43.805Z,1011.53
2018-09-18T10:55:53.391Z,1011.52
2018-09-18T10:57:02.698Z,1011.49
2018-09-18T10:58:12.550Z,1011.39
2018-09-18T10:59:22.133Z,1011.4
2018-09-18T11:00:31.714Z,1011.37
2018-09-18T11:01:41.931Z,1011.36
2018-09-18T11:02:52.000Z,1011.37
2018-09-18T11:04:02.566Z,1011.4
2018-09-18T11:05:12.478Z,1011.32
2018-09-18T11:06:22.123Z,1011.24
2018-09-18T11:07:32.443Z,1011.31
2018-09-18T11:08:43.565Z,1011.3
2018-09-18T11:09:53.898Z,1011.22
2018-09-18T11:11:03.473Z,1011.24
2018-09-18T11:12:13.187Z,1011.2
2018-09-18T11:13:22.740Z,1011.18
2018-09-18T11:14:32.838Z,1011.22
2018-09-18T11:15:43.258Z,1011.23
2018-09-18T11:16:53.784Z,1011.22
2018-09-18T11:18:03.828Z,1011.2
2018-09-18T11:19:13.805Z,1011.18
2018-09-18T11:20:23.442Z,1011.16
2018-09-18T11:21:33.182Z,1011.18
2018-09-18T11:22:44.061Z,1011.19
2018-09-18T11:23:53.469Z,1011.16
2018-09-18T11:25:02.662Z,1011.16
2018-09-18T11:26:12.786Z,1011.06
2018-09-18T11:27:22.452Z,1011.2
2018-09-18T11:28:32.353Z,1011.11
2018-09-18T11:29:42.663Z,1011.08
2018-09-18T11:30:52.639Z,1011.11
2018-09-18T11:32:02.820Z,1011.1
2018-09-18T11:33:12.485Z,1011.09
2018-09-18T11:34:22.113Z,1011.08
2018-09-18T11:35:32.386Z,1011.19
2018-09-18T11:36:42.512Z,1011.1
2018-09-18T11:37:52.358Z,1011.04
2018-09-18T11:39:01.666Z,1011.09
2018-09-18T11:40:11.761Z,1011.04
2018-09-18T11:41:21.340Z,1010.98
2018-09-18T11:42:30.649Z,1011.02
2018-09-18T11:43:40.800Z,1011.07
2018-09-18T11:44:50.923Z,1011.01
2018-09-18T11:46:01.301Z,1011.05
2018-09-18T11:47:11.607Z,1011.08
2018-09-18T11:48:21.737Z,1011.06
2018-09-18T11:49:31.322Z,1010.97
2018-09-18T11:50:41.182Z,1011
2018-09-18T11:51:51.363Z,1011.02
2018-09-18T11:53:01.224Z,1011.03
2018-09-18T11:54:11.346Z,1011.01
2018-09-18T11:55:20.928Z,1010.96
2018-09-18T11:56:30.783Z,1010.91
2018-09-18T11:57:41.132Z,1010.97
2018-09-18T11:58:51.252Z,1010.92
2018-09-18T12:00:01.120Z,1010.96
2018-09-18T12:01:10.163Z,1010.99
2018-09-18T12:02:20.022Z,1011.04
2018-09-18T12:03:29.874Z,1011.03
2018-09-18T12:04:39.249Z,1011
2018-09-18T12:05:50.122Z,1011
2018-09-18T12:06:59.971Z,1010.95
2018-09-18T12:08:09.343Z,1010.94
2018-09-18T12:09:18.635Z,1010.87
2018-09-18T12:10:28.227Z,1010.9
2018-09-18T12:11:37.822Z,1010.88
2018-09-18T12:12:47.951Z,1010.92
2018-09-18T12:13:57.566Z,1010.89
2018-09-18T12:15:07.429Z,1010.83
2018-09-18T12:16:17.317Z,1010.84
2018-09-18T12:17:27.225Z,1010.87
2018-09-18T12:18:37.132Z,1010.87
2018-09-18T12:19:46.709Z,1010.86
2018-09-18T12:20:56.289Z,1010.84
2018-09-18T12:22:06.165Z,1010.86
2018-09-18T12:23:16.039Z,1010.8
2018-09-18T12:24:25.895Z,1010.73
2018-09-18T12:25:35.209Z,1010.83
2018-09-18T12:26:44.797Z,1010.85
2018-09-18T12:27:54.656Z,1010.77
2018-09-18T12:29:04.032Z,1010.8
2018-09-18T12:30:13.620Z,1010.78
2018-09-18T12:31:23.749Z,1010.79
2018-09-18T12:32:33.336Z,1010.74
2018-09-18T12:33:43.482Z,1010.72
2018-09-18T12:34:53.392Z,1010.83
2018-09-18T12:36:03.246Z,1010.73
2018-09-18T12:37:12.828Z,1010.8
2018-09-18T12:38:22.696Z,1010.76
2018-09-18T12:39:32.278Z,1010.8
2018-09-18T12:40:41.869Z,1010.77
2018-09-18T12:41:51.801Z,1010.74
2018-09-18T12:43:03.050Z,1010.8
2018-09-18T12:44:12.369Z,1010.8
2018-09-18T12:45:22.533Z,1010.84
2018-09-18T12:46:32.389Z,1010.78
2018-09-18T12:47:42.270Z,1010.82
2018-09-18T12:48:52.230Z,1010.75
2018-09-18T12:50:02.817Z,1010.73
2018-09-18T12:51:14.047Z,1010.76
2018-09-18T12:52:23.389Z,1010.71
2018-09-18T12:53:33.517Z,1010.59
2018-09-18T12:54:43.930Z,1010.66
2018-09-18T12:55:53.574Z,1010.64
2018-09-18T12:57:03.395Z,1010.64
2018-09-18T12:58:14.588Z,1010.67
2018-09-18T12:59:24.770Z,1010.67
2018-09-18T13:00:35.175Z,1010.58
2018-09-18T13:01:45.057Z,1010.63
2018-09-18T13:02:55.192Z,1010.62
2018-09-18T13:04:05.049Z,1010.58
2018-09-18T13:05:14.635Z,1010.61
2018-09-18T13:06:24.459Z,1010.55
2018-09-18T13:07:35.438Z,1010.47
2018-09-18T13:08:45.292Z,1010.44
2018-09-18T13:09:55.190Z,1010.52
2018-09-18T13:11:05.382Z,1010.48
2018-09-18T13:12:15.195Z,1010.52
2018-09-18T13:13:25.064Z,1010.46
2018-09-18T13:14:35.260Z,1010.38
2018-09-18T13:15:45.781Z,1010.41
2018-09-18T13:16:55.695Z,1010.42
2018-09-18T13:18:05.909Z,1010.43
2018-09-18T13:19:15.264Z,1010.35
2018-09-18T13:20:25.130Z,1010.33
2018-09-18T13:21:34.763Z,1010.33
2018-09-18T13:22:44.091Z,1010.31
2018-09-18T13:23:53.750Z,1010.34
2018-09-18T13:25:03.607Z,1010.3
2018-09-18T13:26:13.190Z,1010.29
2018-09-18T13:27:23.056Z,1010.31
2018-09-18T13:28:33.176Z,1010.26
2018-09-18T13:29:43.301Z,1010.26
2018-09-18T13:30:53.419Z,1010.27
2018-09-18T13:32:03.804Z,1010.29
2018-09-18T13:33:13.495Z,1010.31
2018-09-18T13:34:23.616Z,1010.22
2018-09-18T13:35:33.747Z,1010.29
2018-09-18T13:36:43.332Z,1010.26
2018-09-18T13:37:53.190Z,1010.2
2018-09-18T13:39:03.056Z,1010.21
2018-09-18T13:40:12.960Z,1010.19
2018-09-18T13:41:23.216Z,1010.1
2018-09-18T13:42:33.543Z,1010.14
2018-09-18T13:43:43.679Z,1010.18
2018-09-18T13:44:53.306Z,1010.22
2018-09-18T13:46:03.436Z,1010.23
2018-09-18T13:47:13.620Z,1010.19
2018-09-18T13:48:23.201Z,1010.17
2018-09-18T13:49:32.561Z,1010.16
2018-09-18T13:50:42.742Z,1010.17
2018-09-18T13:51:52.876Z,1010.08
2018-09-18T13:53:02.933Z,1010.11
2018-09-18T13:54:12.788Z,1010.16
2018-09-18T13:55:22.481Z,1010.05
2018-09-18T13:56:33.254Z,1010.14
2018-09-18T13:57:44.060Z,1010.32
2018-09-18T13:58:53.481Z,1010.28
2018-09-18T14:00:03.604Z,1010.17
2018-09-18T14:01:13.809Z,1010.11
2018-09-18T14:02:24.293Z,1010.26
2018-09-18T14:03:34.269Z,1010.24
2018-09-18T14:04:44.175Z,1010.22
2018-09-18T14:05:54.851Z,1010.19
2018-09-18T14:07:04.707Z,1010.23
2018-09-18T14:08:14.129Z,1010.19